sensor_id;sensor_type;location;lat;lon;timestamp;pressure;altitude;pressure_sealevel;temperature;humidity
20043;BME280;10182;52.896;6.496;2023-12-22T00:01:50;99696.44;;;5.12;100.00
20043;BME280;10182;52.896;6.496;2023-12-22T00:06:53;99702.34;;;5.17;100.00
20043;BME280;10182;52.896;6.496;2023-12-22T00:11:55;99702.03;;;5.25;100.00
20043;BME280;10182;52.896;6.496;2023-12-22T00:16:56;99688.56;;;5.33;100.00
20043;BME280;10182;52.896;6.496;2023-12-22T00:22:00;99687.97;;;5.26;100.00
20043;BME280;10182;52.896;6.496;2023-12-22T00:27:03;99695.25;;;5.19;100.00
20043;BME280;10182;52.896;6.496;2023-12-22T00:32:06;99677.53;;;5.24;100.00
20043;BME280;10182;52.896;6.496;2023-12-22T00:37:11;99701.91;;;5.28;100.00
20043;BME280;10182;52.896;6.496;2023-12-22T00:42:13;99694.22;;;5.23;100.00
20043;BME280;10182;52.896;6.496;2023-12-22T00:47:14;99694.47;;;5.17;100.00
20043;BME280;10182;52.896;6.496;2023-12-22T00:52:17;99693.38;;;5.23;100.00
20043;BME280;10182;52.896;6.496;2023-12-22T00:57:19;99700.03;;;5.32;100.00
20043;BME280;10182;52.896;6.496;2023-12-22T01:02:21;99730.59;;;5.33;100.00
20043;BME280;10182;52.896;6.496;2023-12-22T01:07:24;99742.56;;;5.18;100.00
20043;BME280;10182;52.896;6.496;2023-12-22T01:12:26;99746.38;;;5.11;100.00
20043;BME280;10182;52.896;6.496;2023-12-22T01:17:27;99743.25;;;5.23;100.00
20043;BME280;10182;52.896;6.496;2023-12-22T01:22:31;99768.59;;;5.24;100.00
20043;BME280;10182;52.896;6.496;2023-12-22T01:27:34;99770.31;;;5.25;100.00
20043;BME280;10182;52.896;6.496;2023-12-22T01:32:35;99772.31;;;5.40;100.00
20043;BME280;10182;52.896;6.496;2023-12-22T01:37:38;99770.06;;;5.31;100.00
20043;BME280;10182;52.896;6.496;2023-12-22T01:42:40;99775.31;;;5.31;100.00
20043;BME280;10182;52.896;6.496;2023-12-22T01:47:43;99777.03;;;5.32;100.00
20043;BME280;10182;52.896;6.496;2023-12-22T01:52:47;99775.56;;;5.25;100.00
20043;BME280;10182;52.896;6.496;2023-12-22T01:57:49;99779.38;;;5.38;100.00
20043;BME280;10182;52.896;6.496;2023-12-22T02:02:51;99773.75;;;5.48;100.00
20043;BME280;10182;52.896;6.496;2023-12-22T02:07:55;99764.56;;;5.37;100.00
20043;BME280;10182;52.896;6.496;2023-12-22T02:12:57;99756.94;;;5.31;100.00
20043;BME280;10182;52.896;6.496;2023-12-22T02:18:02;99753.59;;;5.28;100.00
20043;BME280;10182;52.896;6.496;2023-12-22T02:23:05;99751.38;;;5.39;100.00
20043;BME280;10182;52.896;6.496;2023-12-22T02:28:09;99758.38;;;5.38;100.00
20043;BME280;10182;52.896;6.496;2023-12-22T02:33:15;99775.25;;;5.11;100.00
20043;BME280;10182;52.896;6.496;2023-12-22T02:38:20;99765.84;;;5.27;100.00
20043;BME280;10182;52.896;6.496;2023-12-22T02:43:22;99781.16;;;5.38;100.00
20043;BME280;10182;52.896;6.496;2023-12-22T02:48:23;99756.13;;;5.51;100.00
20043;BME280;10182;52.896;6.496;2023-12-22T02:53:26;99767.34;;;5.55;100.00
20043;BME280;10182;52.896;6.496;2023-12-22T02:58:28;99747.09;;;5.36;100.00
20043;BME280;10182;52.896;6.496;2023-12-22T03:03:30;99747.47;;;5.27;100.00
20043;BME280;10182;52.896;6.496;2023-12-22T03:08:33;99764.09;;;5.28;100.00
20043;BME280;10182;52.896;6.496;2023-12-22T03:13:34;99752.59;;;5.30;100.00
20043;BME280;10182;52.896;6.496;2023-12-22T03:18:37;99741.78;;;5.16;100.00
20043;BME280;10182;52.896;6.496;2023-12-22T03:23:40;99762.59;;;4.98;100.00
20043;BME280;10182;52.896;6.496;2023-12-22T03:28:42;99757.91;;;4.84;100.00
20043;BME280;10182;52.896;6.496;2023-12-22T03:33:44;99760.31;;;4.67;100.00
20043;BME280;10182;52.896;6.496;2023-12-22T03:38:47;99781.47;;;4.62;100.00
20043;BME280;10182;52.896;6.496;2023-12-22T03:43:48;99770.09;;;4.62;100.00
20043;BME280;10182;52.896;6.496;2023-12-22T03:48:50;99752.91;;;4.54;100.00
20043;BME280;10182;52.896;6.496;2023-12-22T03:53:53;99771.19;;;4.56;100.00
20043;BME280;10182;52.896;6.496;2023-12-22T03:58:55;99783.69;;;4.73;100.00
20043;BME280;10182;52.896;6.496;2023-12-22T04:03:57;99779.94;;;4.80;100.00
20043;BME280;10182;52.896;6.496;2023-12-22T04:09:00;99784.13;;;4.84;100.00
20043;BME280;10182;52.896;6.496;2023-12-22T04:14:02;99777.72;;;4.91;100.00
20043;BME280;10182;52.896;6.496;2023-12-22T04:19:04;99785.06;;;5.05;100.00
20043;BME280;10182;52.896;6.496;2023-12-22T04:24:07;99780.31;;;5.37;100.00
20043;BME280;10182;52.896;6.496;2023-12-22T04:29:09;99794.31;;;5.38;100.00
20043;BME280;10182;52.896;6.496;2023-12-22T04:34:13;99796.69;;;5.44;100.00
20043;BME280;10182;52.896;6.496;2023-12-22T04:39:17;99822.97;;;5.44;100.00
20043;BME280;10182;52.896;6.496;2023-12-22T04:44:19;99801.94;;;5.44;100.00
20043;BME280;10182;52.896;6.496;2023-12-22T04:49:20;99802.72;;;5.46;100.00
20043;BME280;10182;52.896;6.496;2023-12-22T04:54:23;99815.19;;;5.63;100.00
20043;BME280;10182;52.896;6.496;2023-12-22T04:59:25;99818.41;;;5.70;100.00
20043;BME280;10182;52.896;6.496;2023-12-22T05:04:26;99808.75;;;5.70;100.00
20043;BME280;10182;52.896;6.496;2023-12-22T05:09:29;99837.72;;;5.69;100.00
20043;BME280;10182;52.896;6.496;2023-12-22T05:14:31;99811.31;;;5.72;100.00
20043;BME280;10182;52.896;6.496;2023-12-22T05:19:33;99830.63;;;5.71;100.00
20043;BME280;10182;52.896;6.496;2023-12-22T05:24:36;99828.91;;;5.70;100.00
20043;BME280;10182;52.896;6.496;2023-12-22T05:29:38;99836.25;;;5.84;100.00
20043;BME280;10182;52.896;6.496;2023-12-22T05:34:40;99844.06;;;5.85;100.00
20043;BME280;10182;52.896;6.496;2023-12-22T05:39:43;99847.22;;;5.93;100.00
20043;BME280;10182;52.896;6.496;2023-12-22T05:44:45;99867.25;;;5.98;100.00
20043;BME280;10182;52.896;6.496;2023-12-22T05:49:50;99856.88;;;5.93;100.00
20043;BME280;10182;52.896;6.496;2023-12-22T05:54:53;99869.97;;;5.95;100.00
20043;BME280;10182;52.896;6.496;2023-12-22T05:59:55;99865.69;;;5.92;100.00
20043;BME280;10182;52.896;6.496;2023-12-22T06:04:56;99874.66;;;5.86;100.00
20043;BME280;10182;52.896;6.496;2023-12-22T06:09:59;99857.13;;;5.87;100.00
20043;BME280;10182;52.896;6.496;2023-12-22T06:15:01;99868.44;;;5.89;100.00
20043;BME280;10182;52.896;6.496;2023-12-22T06:20:03;99863.16;;;5.89;100.00
20043;BME280;10182;52.896;6.496;2023-12-22T06:25:07;99868.31;;;5.92;100.00
20043;BME280;10182;52.896;6.496;2023-12-22T06:30:10;99876.84;;;5.99;100.00
20043;BME280;10182;52.896;6.496;2023-12-22T06:35:12;99880.19;;;6.02;100.00
20043;BME280;10182;52.896;6.496;2023-12-22T06:40:15;99871.13;;;5.87;100.00
20043;BME280;10182;52.896;6.496;2023-12-22T06:45:17;99871.94;;;5.89;100.00
20043;BME280;10182;52.896;6.496;2023-12-22T06:50:19;99861.34;;;5.91;100.00
20043;BME280;10182;52.896;6.496;2023-12-22T06:55:22;99873.59;;;5.92;100.00
20043;BME280;10182;52.896;6.496;2023-12-22T07:00:23;99896.31;;;5.93;100.00
20043;BME280;10182;52.896;6.496;2023-12-22T07:05:46;99887.69;;;5.89;100.00
20043;BME280;10182;52.896;6.496;2023-12-22T07:10:49;99879.53;;;5.96;100.00
20043;BME280;10182;52.896;6.496;2023-12-22T07:15:51;99871.88;;;5.91;100.00
20043;BME280;10182;52.896;6.496;2023-12-22T07:20:52;99891.25;;;5.88;100.00
20043;BME280;10182;52.896;6.496;2023-12-22T07:25:55;99908.28;;;5.78;100.00
20043;BME280;10182;52.896;6.496;2023-12-22T07:30:58;99899.19;;;5.87;100.00
20043;BME280;10182;52.896;6.496;2023-12-22T07:36:00;99913.19;;;5.87;100.00
20043;BME280;10182;52.896;6.496;2023-12-22T07:41:03;99919.13;;;5.92;100.00
20043;BME280;10182;52.896;6.496;2023-12-22T07:46:05;99914.06;;;5.88;100.00
20043;BME280;10182;52.896;6.496;2023-12-22T07:51:09;99901.75;;;5.88;100.00
20043;BME280;10182;52.896;6.496;2023-12-22T07:56:12;99903.41;;;5.91;100.00
20043;BME280;10182;52.896;6.496;2023-12-22T08:01:14;99902.53;;;5.90;100.00
20043;BME280;10182;52.896;6.496;2023-12-22T08:06:16;99891.25;;;5.88;100.00
20043;BME280;10182;52.896;6.496;2023-12-22T08:11:22;99896.38;;;5.91;100.00
20043;BME280;10182;52.896;6.496;2023-12-22T08:16:25;99918.91;;;5.99;100.00
20043;BME280;10182;52.896;6.496;2023-12-22T08:21:28;99917.81;;;6.04;100.00
20043;BME280;10182;52.896;6.496;2023-12-22T08:26:32;99905.50;;;6.05;100.00
20043;BME280;10182;52.896;6.496;2023-12-22T08:31:33;99910.53;;;6.11;100.00
20043;BME280;10182;52.896;6.496;2023-12-22T08:36:35;99919.50;;;6.05;100.00
20043;BME280;10182;52.896;6.496;2023-12-22T08:41:38;99932.41;;;6.12;100.00
20043;BME280;10182;52.896;6.496;2023-12-22T08:46:40;99941.34;;;6.07;100.00
20043;BME280;10182;52.896;6.496;2023-12-22T08:51:42;99931.41;;;5.92;100.00
20043;BME280;10182;52.896;6.496;2023-12-22T08:56:45;99914.09;;;5.86;100.00
20043;BME280;10182;52.896;6.496;2023-12-22T09:01:46;99912.19;;;5.90;100.00
20043;BME280;10182;52.896;6.496;2023-12-22T09:06:48;99908.81;;;5.88;100.00
20043;BME280;10182;52.896;6.496;2023-12-22T09:11:51;99926.09;;;5.93;100.00
20043;BME280;10182;52.896;6.496;2023-12-22T09:16:54;99891.75;;;5.98;100.00
20043;BME280;10182;52.896;6.496;2023-12-22T09:21:56;99892.63;;;5.97;100.00
20043;BME280;10182;52.896;6.496;2023-12-22T09:26:59;99887.22;;;6.02;100.00
20043;BME280;10182;52.896;6.496;2023-12-22T09:32:03;99888.94;;;6.03;100.00
20043;BME280;10182;52.896;6.496;2023-12-22T09:37:05;99907.38;;;6.01;100.00
20043;BME280;10182;52.896;6.496;2023-12-22T09:42:08;99920.38;;;6.06;100.00
20043;BME280;10182;52.896;6.496;2023-12-22T09:47:10;99916.69;;;6.10;100.00
20043;BME280;10182;52.896;6.496;2023-12-22T09:52:13;99914.06;;;6.10;100.00
20043;BME280;10182;52.896;6.496;2023-12-22T09:57:18;99913.94;;;6.13;100.00
20043;BME280;10182;52.896;6.496;2023-12-22T10:02:20;99905.97;;;6.15;100.00
20043;BME280;10182;52.896;6.496;2023-12-22T10:07:22;99902.50;;;6.14;100.00
20043;BME280;10182;52.896;6.496;2023-12-22T10:12:27;99896.38;;;6.14;100.00
20043;BME280;10182;52.896;6.496;2023-12-22T10:17:30;99897.03;;;6.19;100.00
20043;BME280;10182;52.896;6.496;2023-12-22T10:22:32;99901.50;;;6.17;100.00
20043;BME280;10182;52.896;6.496;2023-12-22T10:27:35;99900.63;;;6.16;100.00
20043;BME280;10182;52.896;6.496;2023-12-22T10:32:40;99867.50;;;6.12;100.00
20043;BME280;10182;52.896;6.496;2023-12-22T10:37:42;99847.44;;;6.09;100.00
20043;BME280;10182;52.896;6.496;2023-12-22T10:42:45;99859.00;;;6.05;100.00
20043;BME280;10182;52.896;6.496;2023-12-22T10:47:48;99840.75;;;6.02;100.00
20043;BME280;10182;52.896;6.496;2023-12-22T10:52:51;99847.00;;;6.00;100.00
20043;BME280;10182;52.896;6.496;2023-12-22T10:57:54;99868.81;;;6.02;100.00
20043;BME280;10182;52.896;6.496;2023-12-22T11:03:00;99861.66;;;6.05;100.00
20043;BME280;10182;52.896;6.496;2023-12-22T11:08:03;99877.03;;;6.15;100.00
20043;BME280;10182;52.896;6.496;2023-12-22T11:13:12;99878.63;;;6.19;100.00
20043;BME280;10182;52.896;6.496;2023-12-22T11:18:15;99877.66;;;6.21;100.00
20043;BME280;10182;52.896;6.496;2023-12-22T11:23:18;99854.56;;;6.28;100.00
20043;BME280;10182;52.896;6.496;2023-12-22T11:28:23;99849.75;;;6.38;100.00
20043;BME280;10182;52.896;6.496;2023-12-22T11:33:25;99836.53;;;6.39;100.00
20043;BME280;10182;52.896;6.496;2023-12-22T11:38:27;99823.91;;;6.48;100.00
20043;BME280;10182;52.896;6.496;2023-12-22T11:43:34;99843.97;;;6.50;100.00
20043;BME280;10182;52.896;6.496;2023-12-22T11:48:37;99828.97;;;6.52;100.00
20043;BME280;10182;52.896;6.496;2023-12-22T11:53:40;99834.34;;;6.49;100.00
20043;BME280;10182;52.896;6.496;2023-12-22T11:58:44;99828.91;;;6.54;100.00
20043;BME280;10182;52.896;6.496;2023-12-22T12:03:52;99815.91;;;6.51;100.00
20043;BME280;10182;52.896;6.496;2023-12-22T12:08:54;99817.50;;;6.53;100.00
20043;BME280;10182;52.896;6.496;2023-12-22T12:14:08;99817.56;;;6.52;100.00
20043;BME280;10182;52.896;6.496;2023-12-22T12:19:12;99808.69;;;6.54;100.00
20043;BME280;10182;52.896;6.496;2023-12-22T12:24:13;99797.97;;;6.59;100.00
20043;BME280;10182;52.896;6.496;2023-12-22T12:29:17;99797.97;;;6.59;100.00
20043;BME280;10182;52.896;6.496;2023-12-22T12:34:19;99792.00;;;6.55;100.00
20043;BME280;10182;52.896;6.496;2023-12-22T12:39:22;99783.13;;;6.58;100.00
20043;BME280;10182;52.896;6.496;2023-12-22T12:44:29;99781.22;;;6.62;100.00
20043;BME280;10182;52.896;6.496;2023-12-22T12:49:32;99780.19;;;6.64;100.00
20043;BME280;10182;52.896;6.496;2023-12-22T12:54:34;99779.28;;;6.65;100.00
20043;BME280;10182;52.896;6.496;2023-12-22T12:59:37;99787.16;;;6.65;100.00
20043;BME280;10182;52.896;6.496;2023-12-22T13:04:39;99781.13;;;6.63;100.00
20043;BME280;10182;52.896;6.496;2023-12-22T13:09:41;99785.44;;;6.64;100.00
20043;BME280;10182;52.896;6.496;2023-12-22T13:14:44;99778.63;;;6.60;100.00
20043;BME280;10182;52.896;6.496;2023-12-22T13:19:46;99774.16;;;6.62;100.00
20043;BME280;10182;52.896;6.496;2023-12-22T13:24:55;99763.47;;;6.65;100.00
20043;BME280;10182;52.896;6.496;2023-12-22T13:29:59;99779.41;;;6.62;100.00
20043;BME280;10182;52.896;6.496;2023-12-22T13:35:01;99778.63;;;6.60;100.00
20043;BME280;10182;52.896;6.496;2023-12-22T13:40:07;99788.31;;;6.59;100.00
20043;BME280;10182;52.896;6.496;2023-12-22T13:45:11;99775.16;;;6.59;100.00
20043;BME280;10182;52.896;6.496;2023-12-22T13:50:13;99775.16;;;6.59;100.00
20043;BME280;10182;52.896;6.496;2023-12-22T13:55:17;99788.38;;;6.58;100.00
20043;BME280;10182;52.896;6.496;2023-12-22T14:00:27;99806.22;;;6.51;100.00
20043;BME280;10182;52.896;6.496;2023-12-22T14:05:29;99815.31;;;6.44;100.00
20043;BME280;10182;52.896;6.496;2023-12-22T14:10:31;99789.84;;;6.44;100.00
20043;BME280;10182;52.896;6.496;2023-12-22T14:15:34;99763.94;;;6.35;100.00
20043;BME280;10182;52.896;6.496;2023-12-22T14:20:37;99787.69;;;6.34;100.00
20043;BME280;10182;52.896;6.496;2023-12-22T14:25:38;99781.72;;;6.30;100.00
20043;BME280;10182;52.896;6.496;2023-12-22T14:30:41;99774.47;;;6.35;100.00
20043;BME280;10182;52.896;6.496;2023-12-22T14:35:43;99782.25;;;6.38;100.00
20043;BME280;10182;52.896;6.496;2023-12-22T14:40:44;99783.84;;;6.41;100.00
20043;BME280;10182;52.896;6.496;2023-12-22T14:45:48;99778.94;;;6.33;100.00
20043;BME280;10182;52.896;6.496;2023-12-22T14:50:49;99778.44;;;6.25;100.00
20043;BME280;10182;52.896;6.496;2023-12-22T14:55:51;99807.44;;;6.23;100.00
20043;BME280;10182;52.896;6.496;2023-12-22T15:00:55;99789.28;;;6.17;100.00
20043;BME280;10182;52.896;6.496;2023-12-22T15:05:56;99805.06;;;6.17;100.00
20043;BME280;10182;52.896;6.496;2023-12-22T15:10:58;99812.22;;;6.14;100.00
20043;BME280;10182;52.896;6.496;2023-12-22T15:16:05;99787.72;;;6.13;100.00
20043;BME280;10182;52.896;6.496;2023-12-22T15:21:07;99791.31;;;6.10;100.00
20043;BME280;10182;52.896;6.496;2023-12-22T15:26:19;99816.63;;;6.13;100.00
20043;BME280;10182;52.896;6.496;2023-12-22T15:31:22;99811.38;;;6.13;100.00
20043;BME280;10182;52.896;6.496;2023-12-22T15:36:24;99817.47;;;6.14;100.00
20043;BME280;10182;52.896;6.496;2023-12-22T15:41:28;99827.81;;;6.18;100.00
20043;BME280;10182;52.896;6.496;2023-12-22T15:46:31;99820.00;;;6.17;100.00
20043;BME280;10182;52.896;6.496;2023-12-22T15:51:33;99829.63;;;6.16;100.00
20043;BME280;10182;52.896;6.496;2023-12-22T15:56:35;99833.25;;;6.14;100.00
20043;BME280;10182;52.896;6.496;2023-12-22T16:01:43;99861.13;;;6.18;100.00
20043;BME280;10182;52.896;6.496;2023-12-22T16:06:45;99866.34;;;6.19;100.00
20043;BME280;10182;52.896;6.496;2023-12-22T16:11:47;99869.09;;;6.37;100.00
20043;BME280;10182;52.896;6.496;2023-12-22T16:16:54;99853.72;;;6.48;100.00
20043;BME280;10182;52.896;6.496;2023-12-22T16:21:55;99844.88;;;6.70;100.00
20043;BME280;10182;52.896;6.496;2023-12-22T16:26:59;99880.69;;;6.72;100.00
20043;BME280;10182;52.896;6.496;2023-12-22T16:32:02;99859.59;;;6.74;100.00
20043;BME280;10182;52.896;6.496;2023-12-22T16:37:03;99895.44;;;6.76;100.00
20043;BME280;10182;52.896;6.496;2023-12-22T16:42:06;99910.13;;;6.82;100.00
20043;BME280;10182;52.896;6.496;2023-12-22T16:47:09;99918.06;;;6.81;100.00
20043;BME280;10182;52.896;6.496;2023-12-22T16:52:11;99914.38;;;6.85;100.00
20043;BME280;10182;52.896;6.496;2023-12-22T16:57:13;99915.75;;;6.93;100.00
20043;BME280;10182;52.896;6.496;2023-12-22T17:02:16;99923.00;;;6.88;100.00
20043;BME280;10182;52.896;6.496;2023-12-22T17:07:18;99929.50;;;7.00;100.00
20043;BME280;10182;52.896;6.496;2023-12-22T17:12:21;99916.13;;;7.05;100.00
20043;BME280;10182;52.896;6.496;2023-12-22T17:17:24;99912.66;;;7.04;100.00
20043;BME280;10182;52.896;6.496;2023-12-22T17:22:25;99945.81;;;7.08;100.00
20043;BME280;10182;52.896;6.496;2023-12-22T17:27:27;99957.84;;;7.14;100.00
20043;BME280;10182;52.896;6.496;2023-12-22T17:32:30;99973.22;;;7.04;100.00
20043;BME280;10182;52.896;6.496;2023-12-22T17:37:32;99978.34;;;7.07;100.00
20043;BME280;10182;52.896;6.496;2023-12-22T17:42:34;99985.59;;;7.02;100.00
20043;BME280;10182;52.896;6.496;2023-12-22T17:47:38;99989.41;;;6.95;100.00
20043;BME280;10182;52.896;6.496;2023-12-22T17:52:39;100012.97;;;6.77;100.00
20043;BME280;10182;52.896;6.496;2023-12-22T17:57:41;100010.63;;;6.71;100.00
20043;BME280;10182;52.896;6.496;2023-12-22T18:02:44;100032.63;;;6.48;100.00
20043;BME280;10182;52.896;6.496;2023-12-22T18:07:47;100052.72;;;6.49;100.00
20043;BME280;10182;52.896;6.496;2023-12-22T18:12:49;100072.31;;;6.42;100.00
20043;BME280;10182;52.896;6.496;2023-12-22T18:17:52;100055.25;;;6.08;100.00
20043;BME280;10182;52.896;6.496;2023-12-22T18:22:54;100107.56;;;5.67;100.00
20043;BME280;10182;52.896;6.496;2023-12-22T18:27:56;100121.53;;;5.43;100.00
20043;BME280;10182;52.896;6.496;2023-12-22T18:32:59;100125.22;;;5.38;100.00
20043;BME280;10182;52.896;6.496;2023-12-22T18:38:00;100137.78;;;5.30;100.00
20043;BME280;10182;52.896;6.496;2023-12-22T18:43:02;100145.25;;;5.15;100.00
20043;BME280;10182;52.896;6.496;2023-12-22T18:48:06;100148.66;;;5.19;100.00
20043;BME280;10182;52.896;6.496;2023-12-22T18:53:08;100134.00;;;5.12;100.00
20043;BME280;10182;52.896;6.496;2023-12-22T18:58:10;100119.22;;;5.09;100.00
20043;BME280;10182;52.896;6.496;2023-12-22T19:03:13;100126.94;;;5.14;100.00
20043;BME280;10182;52.896;6.496;2023-12-22T19:08:14;100136.53;;;5.15;100.00
20043;BME280;10182;52.896;6.496;2023-12-22T19:13:16;100139.00;;;5.19;100.00
20043;BME280;10182;52.896;6.496;2023-12-22T19:18:20;100126.63;;;5.23;100.00
20043;BME280;10182;52.896;6.496;2023-12-22T19:23:22;100136.16;;;5.25;100.00
20043;BME280;10182;52.896;6.496;2023-12-22T19:28:23;100154.59;;;5.24;100.00
20043;BME280;10182;52.896;6.496;2023-12-22T19:33:27;100153.41;;;5.33;100.00
20043;BME280;10182;52.896;6.496;2023-12-22T19:38:28;100153.38;;;5.34;100.00
20043;BME280;10182;52.896;6.496;2023-12-22T19:43:30;100181.25;;;5.38;100.00
20043;BME280;10182;52.896;6.496;2023-12-22T19:48:33;100179.38;;;5.42;100.00
20043;BME280;10182;52.896;6.496;2023-12-22T19:53:35;100194.19;;;5.45;100.00
20043;BME280;10182;52.896;6.496;2023-12-22T19:58:36;100187.00;;;5.50;100.00
20043;BME280;10182;52.896;6.496;2023-12-22T20:03:39;100195.72;;;5.50;100.00
20043;BME280;10182;52.896;6.496;2023-12-22T20:08:41;100206.41;;;5.46;100.00
20043;BME280;10182;52.896;6.496;2023-12-22T20:13:43;100211.56;;;5.49;100.00
20043;BME280;10182;52.896;6.496;2023-12-22T20:18:49;100231.63;;;5.51;100.00
20043;BME280;10182;52.896;6.496;2023-12-22T20:23:51;100235.84;;;5.55;100.00
20043;BME280;10182;52.896;6.496;2023-12-22T20:28:54;100263.69;;;5.61;100.00
20043;BME280;10182;52.896;6.496;2023-12-22T20:33:57;100276.88;;;5.59;100.00
20043;BME280;10182;52.896;6.496;2023-12-22T20:38:59;100290.88;;;5.60;100.00
20043;BME280;10182;52.896;6.496;2023-12-22T20:44:01;100289.25;;;5.56;100.00
20043;BME280;10182;52.896;6.496;2023-12-22T20:49:04;100299.88;;;5.53;100.00
20043;BME280;10182;52.896;6.496;2023-12-22T20:54:06;100307.75;;;5.53;100.00
20043;BME280;10182;52.896;6.496;2023-12-22T20:59:08;100347.78;;;5.61;100.00
20043;BME280;10182;52.896;6.496;2023-12-22T21:04:11;100338.38;;;5.54;100.00
20043;BME280;10182;52.896;6.496;2023-12-22T21:09:13;100342.28;;;5.40;100.00
20043;BME280;10182;52.896;6.496;2023-12-22T21:14:14;100344.47;;;5.26;100.00
20043;BME280;10182;52.896;6.496;2023-12-22T21:19:17;100355.19;;;5.20;100.00
20043;BME280;10182;52.896;6.496;2023-12-22T21:24:19;100376.94;;;5.23;100.00
20043;BME280;10182;52.896;6.496;2023-12-22T21:29:21;100377.66;;;5.29;100.00
20043;BME280;10182;52.896;6.496;2023-12-22T21:34:24;100383.75;;;5.31;100.00
20043;BME280;10182;52.896;6.496;2023-12-22T21:39:26;100398.47;;;5.36;100.00
20043;BME280;10182;52.896;6.496;2023-12-22T21:44:27;100409.06;;;5.33;100.00
20043;BME280;10182;52.896;6.496;2023-12-22T21:49:31;100412.06;;;5.21;100.00
20043;BME280;10182;52.896;6.496;2023-12-22T21:54:32;100415.53;;;5.21;100.00
20043;BME280;10182;52.896;6.496;2023-12-22T21:59:34;100401.88;;;5.10;100.00
20043;BME280;10182;52.896;6.496;2023-12-22T22:04:37;100445.47;;;5.16;100.00
20043;BME280;10182;52.896;6.496;2023-12-22T22:09:40;100459.19;;;5.25;100.00
20043;BME280;10182;52.896;6.496;2023-12-22T22:14:42;100467.47;;;5.12;100.00
20043;BME280;10182;52.896;6.496;2023-12-22T22:19:45;100466.19;;;4.95;100.00
20043;BME280;10182;52.896;6.496;2023-12-22T22:24:47;100457.56;;;4.90;100.00
20043;BME280;10182;52.896;6.496;2023-12-22T22:29:48;100478.72;;;4.84;100.00
20043;BME280;10182;52.896;6.496;2023-12-22T22:34:51;100472.75;;;4.79;100.00
20043;BME280;10182;52.896;6.496;2023-12-22T22:39:53;100466.72;;;4.75;100.00
20043;BME280;10182;52.896;6.496;2023-12-22T22:44:55;100474.72;;;4.70;100.00
20043;BME280;10182;52.896;6.496;2023-12-22T22:49:58;100487.94;;;4.66;100.00
20043;BME280;10182;52.896;6.496;2023-12-22T22:55:00;100513.09;;;4.74;100.00
20043;BME280;10182;52.896;6.496;2023-12-22T23:00:02;100510.09;;;4.88;100.00
20043;BME280;10182;52.896;6.496;2023-12-22T23:05:13;100517.09;;;4.89;100.00
20043;BME280;10182;52.896;6.496;2023-12-22T23:10:15;100500.38;;;4.92;100.00
20043;BME280;10182;52.896;6.496;2023-12-22T23:15:17;100508.22;;;4.94;100.00
20043;BME280;10182;52.896;6.496;2023-12-22T23:20:20;100528.47;;;4.88;100.00
20043;BME280;10182;52.896;6.496;2023-12-22T23:25:21;100517.88;;;4.91;100.00
20043;BME280;10182;52.896;6.496;2023-12-22T23:30:23;100516.19;;;4.89;100.00
20043;BME280;10182;52.896;6.496;2023-12-22T23:35:26;100525.84;;;4.88;100.00
20043;BME280;10182;52.896;6.496;2023-12-22T23:40:28;100531.34;;;4.79;100.00
20043;BME280;10182;52.896;6.496;2023-12-22T23:45:29;100536.63;;;4.78;100.00
20043;BME280;10182;52.896;6.496;2023-12-22T23:50:33;100523.59;;;4.74;100.00
20043;BME280;10182;52.896;6.496;2023-12-22T23:55:35;100526.13;;;4.78;100.00
